createdAt,value
2022-12-11T00:09:51.275Z,8.93
2022-12-11T00:19:53.245Z,7.10
2022-12-11T00:29:56.508Z,8.88
2022-12-11T00:39:58.448Z,8.40
2022-12-11T00:50:01.699Z,6.75
2022-12-11T01:00:04.449Z,6.75
2022-12-11T01:10:08.567Z,8.23
2022-12-11T01:20:11.630Z,6.30
2022-12-11T01:30:14.984Z,6.45
2022-12-11T01:40:19.213Z,5.78
2022-12-11T01:50:22.828Z,7.15
2022-12-11T02:00:24.751Z,7.72
2022-12-11T02:10:39.752Z,7.93
2022-12-11T02:20:48.355Z,7.25
2022-12-11T02:30:55.381Z,8.77
2022-12-11T02:40:58.879Z,6.78
2022-12-11T02:51:05.028Z,5.78
2022-12-11T03:01:06.985Z,6.32
2022-12-11T03:11:12.197Z,5.45
2022-12-11T03:21:19.612Z,5.63
2022-12-11T03:31:29.595Z,6.97
2022-12-11T03:41:34.282Z,5.53
2022-12-11T03:51:38.804Z,5.68
2022-12-11T04:01:40.906Z,5.93
2022-12-11T04:11:44.237Z,5.25
2022-12-11T04:21:46.137Z,5.95
2022-12-11T04:31:49.436Z,5.55
2022-12-11T04:41:51.356Z,6.10
2022-12-11T04:51:54.611Z,7.03
2022-12-11T05:01:56.561Z,5.50
2022-12-11T05:11:59.878Z,6.60
2022-12-11T05:22:01.887Z,6.13
2022-12-11T05:32:05.433Z,7.07
2022-12-11T05:42:07.332Z,5.47
2022-12-11T05:52:10.599Z,6.18
2022-12-11T06:02:12.549Z,5.57
2022-12-11T06:12:15.845Z,7.35
2022-12-11T06:22:17.759Z,5.30
2022-12-11T06:32:21.015Z,6.45
2022-12-11T06:42:22.909Z,7.03
2022-12-11T06:52:26.908Z,6.13
2022-12-11T07:02:28.900Z,8.77
2022-12-11T07:12:32.211Z,9.35
2022-12-11T07:22:34.113Z,9.98
2022-12-11T07:32:37.478Z,9.35
2022-12-11T07:42:45.866Z,9.35
2022-12-11T07:52:49.493Z,11.68
2022-12-11T08:02:51.414Z,11.80
2022-12-11T08:12:54.712Z,12.07
2022-12-11T08:22:59.194Z,13.30
2022-12-11T08:33:02.722Z,13.88
2022-12-11T08:43:04.660Z,14.05
2022-12-11T08:53:08.025Z,12.68
2022-12-11T09:03:12.918Z,12.20
2022-12-11T09:13:16.516Z,12.73
2022-12-11T09:23:18.564Z,12.68
2022-12-11T09:33:21.902Z,9.38
2022-12-11T09:43:37.184Z,10.93
2022-12-11T09:53:40.479Z,9.73
2022-12-11T10:04:03.794Z,11.27
2022-12-11T10:14:17.258Z,12.50
2022-12-11T10:24:42.203Z,13.82
2022-12-11T10:34:49.735Z,22.92
2022-12-11T10:44:59.678Z,25.52
2022-12-11T10:55:06.290Z,34.60
2022-12-11T11:05:14.178Z,46.13
2022-12-11T11:15:20.015Z,37.35
2022-12-11T11:25:24.078Z,38.33
2022-12-11T11:35:29.605Z,55.92
2022-12-11T11:45:56.558Z,48.17
2022-12-11T11:56:05.219Z,28.23
2022-12-11T12:06:16.160Z,17.73
2022-12-11T12:17:03.789Z,14.27
2022-12-11T12:27:43.696Z,12.32
2022-12-11T12:37:50.875Z,11.30
2022-12-11T12:48:29.670Z,9.40
2022-12-11T12:58:42.594Z,11.70
2022-12-11T13:08:48.392Z,10.25
2022-12-11T13:18:52.467Z,13.52
2022-12-11T13:28:54.400Z,15.90
2022-12-11T13:39:01.937Z,16.88
2022-12-11T13:49:05.202Z,22.75
2022-12-11T13:59:23.341Z,27.10
2022-12-11T14:09:27.419Z,23.35
2022-12-11T14:19:30.965Z,22.30
2022-12-11T14:29:33.889Z,19.25
2022-12-11T14:39:40.883Z,18.10
2022-12-11T14:49:49.383Z,18.98
2022-12-11T15:11:01.890Z,22.45
2022-12-11T15:21:06.860Z,24.60
2022-12-11T15:31:25.352Z,26.63
2022-12-11T15:41:28.179Z,27.08
2022-12-11T15:51:31.472Z,29.58
2022-12-11T16:01:33.727Z,27.80
2022-12-11T16:11:37.064Z,40.45
2022-12-11T16:21:39.033Z,36.85
2022-12-11T16:31:43.663Z,32.05
2022-12-11T16:41:45.636Z,35.13
2022-12-11T16:51:49.009Z,38.53
2022-12-11T17:01:51.133Z,35.75
2022-12-11T17:11:54.503Z,31.33
2022-12-11T17:21:56.479Z,25.73
2022-12-11T17:31:59.870Z,21.92
2022-12-11T17:42:01.820Z,23.88
2022-12-11T17:52:05.299Z,24.73
2022-12-11T18:02:07.279Z,24.70
2022-12-11T18:12:10.952Z,26.67
2022-12-11T18:22:12.875Z,24.23
2022-12-11T18:32:16.218Z,27.95
2022-12-11T18:42:32.610Z,26.10
2022-12-11T18:52:36.359Z,22.92
2022-12-11T19:02:38.316Z,25.20
2022-12-11T19:12:41.630Z,22.48
2022-12-11T19:22:43.575Z,22.15
2022-12-11T19:32:46.835Z,19.50
2022-12-11T19:42:48.775Z,18.92
2022-12-11T19:52:52.079Z,17.30
2022-12-11T20:02:57.563Z,13.63
2022-12-11T20:13:00.859Z,14.27
2022-12-11T20:23:02.817Z,13.88
2022-12-11T20:33:06.113Z,13.38
2022-12-11T20:43:08.086Z,14.75
2022-12-11T20:53:11.398Z,14.20
2022-12-11T21:03:13.976Z,14.23
2022-12-11T21:13:17.275Z,12.45
2022-12-11T21:23:19.205Z,11.60
2022-12-11T21:33:22.543Z,11.57
2022-12-11T21:43:24.851Z,12.38
2022-12-11T21:53:28.150Z,12.98
2022-12-11T22:03:30.145Z,13.90
2022-12-11T22:13:33.898Z,13.15
2022-12-11T22:23:37.604Z,14.52
2022-12-11T22:33:41.335Z,13.52
2022-12-11T22:43:43.267Z,13.00
2022-12-11T22:53:46.581Z,12.30
2022-12-11T23:03:48.632Z,9.60
2022-12-11T23:13:52.477Z,9.55
2022-12-11T23:23:54.994Z,10.15
2022-12-11T23:33:58.456Z,10.20
2022-12-11T23:44:00.386Z,9.07
2022-12-11T23:54:03.766Z,8.00
